Time;durP1;ratioP1;P1;durP2;ratioP2;P2;SDS_P1;SDS_P2;PMS_P1;PMS_P2;Temp;Humidity;BMP_temperature;BMP_pressure;BME280_temperature;BME280_humidity;BME280_pressure;Samples;Min_cycle;Max_cycle;Signal;HPM_P1;HPM_P2
2024/03/16 00:01:11;;;;;;;3.85;2.42;;;;;;;;;;5070031;28;20025;-74
2024/03/16 00:03:37;;;;;;;4.70;2.80;;;;;;;;;;5069447;28;20040;-74
2024/03/16 00:06:02;;;;;;;6.20;3.00;;;;;;;;;;5073821;28;20035;-74
2024/03/16 00:08:27;;;;;;;5.68;2.55;;;;;;;;;;5072396;28;20025;-74
2024/03/16 00:10:52;;;;;;;5.28;2.67;;;;;;;;;;5073165;28;20029;-74
2024/03/16 00:13:18;;;;;;;6.53;3.10;;;;;;;;;;5073769;28;20035;-74
2024/03/16 00:15:47;;;;;;;4.55;2.40;;;;;;;;;;5073834;28;20386;-74
2024/03/16 00:18:12;;;;;;;4.63;2.78;;;;;;;;;;5074686;28;20027;-73
2024/03/16 00:20:40;;;;;;;5.47;2.45;;;;;;;;;;5073673;28;20481;-74
2024/03/16 00:23:05;;;;;;;5.10;2.60;;;;;;;;;;5073172;28;20481;-74
2024/03/16 00:25:31;;;;;;;4.50;2.40;;;;;;;;;;5073703;28;20161;-74
2024/03/16 00:27:56;;;;;;;6.40;2.50;;;;;;;;;;5074071;28;20104;-73
2024/03/16 00:30:23;;;;;;;4.72;2.50;;;;;;;;;;5073755;28;20123;-74
2024/03/16 00:32:48;;;;;;;3.88;2.10;;;;;;;;;;5073338;28;20024;-74
2024/03/16 00:35:13;;;;;;;5.40;2.15;;;;;;;;;;5073533;28;20596;-74
2024/03/16 00:37:38;;;;;;;4.03;2.20;;;;;;;;;;5075383;28;20032;-74
2024/03/16 00:40:07;;;;;;;5.10;2.97;;;;;;;;;;5073499;28;20032;-74
2024/03/16 00:42:32;;;;;;;4.88;2.90;;;;;;;;;;5073062;28;20055;-73
2024/03/16 00:44:57;;;;;;;7.93;3.03;;;;;;;;;;5073369;28;20493;-73
2024/03/16 00:47:22;;;;;;;4.90;3.03;;;;;;;;;;5073746;28;20512;-73
2024/03/16 00:49:48;;;;;;;6.13;2.47;;;;;;;;;;5073212;28;20056;-74
2024/03/16 00:52:13;;;;;;;4.85;2.40;;;;;;;;;;5072966;28;20469;-74
2024/03/16 00:54:38;;;;;;;5.25;2.33;;;;;;;;;;5073019;28;20107;-73
2024/03/16 00:57:04;;;;;;;4.55;2.60;;;;;;;;;;5073419;28;20035;-74
2024/03/16 00:59:29;;;;;;;5.75;3.33;;;;;;;;;;5078875;28;20028;-74
2024/03/16 01:01:54;;;;;;;6.10;2.45;;;;;;;;;;5076322;28;20032;-76
2024/03/16 01:04:19;;;;;;;4.93;2.90;;;;;;;;;;5078230;28;20028;-74
2024/03/16 01:06:45;;;;;;;5.38;2.53;;;;;;;;;;5073801;28;20032;-74
2024/03/16 01:09:10;;;;;;;5.78;2.50;;;;;;;;;;5073020;28;20036;-74
2024/03/16 01:11:35;;;;;;;5.50;2.78;;;;;;;;;;5074831;28;20107;-74
2024/03/16 01:14:00;;;;;;;4.47;2.58;;;;;;;;;;5076420;28;20024;-74
2024/03/16 01:16:26;;;;;;;5.18;2.85;;;;;;;;;;5082011;28;20399;-74
2024/03/16 01:18:51;;;;;;;5.80;2.80;;;;;;;;;;5080600;28;20032;-74
2024/03/16 01:21:16;;;;;;;4.72;2.70;;;;;;;;;;5072613;28;20037;-74
2024/03/16 01:23:41;;;;;;;7.65;2.53;;;;;;;;;;5072287;28;20034;-74
2024/03/16 01:26:07;;;;;;;5.50;2.45;;;;;;;;;;5072528;28;20396;-74
2024/03/16 01:28:33;;;;;;;4.32;2.85;;;;;;;;;;5077278;28;20078;-74
2024/03/16 01:30:58;;;;;;;5.85;2.80;;;;;;;;;;5076712;28;20032;-73
2024/03/16 01:33:24;;;;;;;7.55;3.10;;;;;;;;;;5072168;28;20058;-73
2024/03/16 01:35:49;;;;;;;6.88;2.78;;;;;;;;;;5072223;28;20400;-74
2024/03/16 01:38:15;;;;;;;4.90;2.63;;;;;;;;;;5077013;28;20032;-74
2024/03/16 01:40:41;;;;;;;4.38;2.58;;;;;;;;;;5072268;28;20040;-74
2024/03/16 01:43:07;;;;;;;4.13;2.50;;;;;;;;;;5072585;28;20020;-74
2024/03/16 01:45:32;;;;;;;5.22;3.28;;;;;;;;;;5075669;28;20059;-74
2024/03/16 01:48:00;;;;;;;4.22;2.53;;;;;;;;;;5078596;28;20497;-74
2024/03/16 01:50:25;;;;;;;5.95;3.45;;;;;;;;;;5072222;28;20826;-75
2024/03/16 01:52:50;;;;;;;4.80;2.80;;;;;;;;;;5071797;28;20115;-74
2024/03/16 01:55:16;;;;;;;5.57;2.58;;;;;;;;;;5072131;28;20032;-73
2024/03/16 01:57:41;;;;;;;4.20;2.45;;;;;;;;;;5079507;28;20075;-74
2024/03/16 02:00:11;;;;;;;5.55;3.20;;;;;;;;;;5072113;28;20570;-74
2024/03/16 02:02:36;;;;;;;5.35;2.88;;;;;;;;;;5071738;28;20032;-74
2024/03/16 02:05:05;;;;;;;5.45;2.80;;;;;;;;;;5071907;28;20440;-74
2024/03/16 02:07:31;;;;;;;9.60;2.88;;;;;;;;;;5079022;28;20028;-74
2024/03/16 02:09:57;;;;;;;6.60;3.22;;;;;;;;;;5071792;28;20031;-74
2024/03/16 02:12:23;;;;;;;5.95;3.33;;;;;;;;;;5071533;28;20029;-74
2024/03/16 02:14:48;;;;;;;5.47;2.72;;;;;;;;;;5071866;28;20037;-74
2024/03/16 02:17:13;;;;;;;5.85;3.08;;;;;;;;;;5076359;28;20095;-74
2024/03/16 02:19:38;;;;;;;5.20;2.95;;;;;;;;;;5072356;28;20060;-74
2024/03/16 02:22:06;;;;;;;8.05;2.60;;;;;;;;;;5071192;28;20111;-74
2024/03/16 02:24:34;;;;;;;5.85;2.47;;;;;;;;;;5071594;28;20401;-74
2024/03/16 02:27:00;;;;;;;4.75;2.15;;;;;;;;;;5078214;28;20489;-73
2024/03/16 02:29:27;;;;;;;8.07;2.40;;;;;;;;;;5075424;28;20060;-74
2024/03/16 02:31:53;;;;;;;5.50;2.28;;;;;;;;;;5070318;28;20089;-74
2024/03/16 02:34:18;;;;;;;5.68;2.17;;;;;;;;;;5071207;28;20029;-74
2024/03/16 02:36:43;;;;;;;4.10;2.28;;;;;;;;;;5074268;28;20396;-74
2024/03/16 02:39:11;;;;;;;3.92;1.98;;;;;;;;;;5078441;28;20404;-74
2024/03/16 02:41:36;;;;;;;5.88;1.80;;;;;;;;;;5071024;28;20409;-74
2024/03/16 02:44:02;;;;;;;4.05;2.17;;;;;;;;;;5070745;28;20106;-74
2024/03/16 02:46:27;;;;;;;7.15;2.20;;;;;;;;;;5070104;28;20099;-74
2024/03/16 02:48:52;;;;;;;5.30;2.50;;;;;;;;;;5075393;28;20028;-74
2024/03/16 02:51:17;;;;;;;5.15;2.40;;;;;;;;;;5071055;28;20024;-74
2024/03/16 02:53:43;;;;;;;4.20;2.33;;;;;;;;;;5070777;28;20489;-74
2024/03/16 02:56:08;;;;;;;5.72;2.17;;;;;;;;;;5070978;28;20495;-74
2024/03/16 02:58:34;;;;;;;5.72;2.20;;;;;;;;;;5079230;28;20024;-74
2024/03/16 03:00:59;;;;;;;5.25;2.10;;;;;;;;;;5081301;28;20447;-74
2024/03/16 03:03:24;;;;;;;4.22;1.95;;;;;;;;;;5074731;28;20028;-74
2024/03/16 03:05:49;;;;;;;4.70;2.22;;;;;;;;;;5071164;28;20112;-74
2024/03/16 03:08:15;;;;;;;4.32;1.88;;;;;;;;;;5079739;28;20023;-74
2024/03/16 03:10:41;;;;;;;5.53;2.10;;;;;;;;;;5072708;28;20025;-74
2024/03/16 03:13:06;;;;;;;6.00;2.13;;;;;;;;;;5076615;28;20033;-74
2024/03/16 03:15:33;;;;;;;3.72;1.73;;;;;;;;;;5070464;28;20032;-74
2024/03/16 03:17:58;;;;;;;5.38;2.00;;;;;;;;;;5077149;28;20040;-74
2024/03/16 03:20:24;;;;;;;3.65;2.00;;;;;;;;;;5070431;28;20155;-74
2024/03/16 03:22:50;;;;;;;6.10;2.00;;;;;;;;;;5070364;28;20028;-73
2024/03/16 03:25:15;;;;;;;5.45;1.95;;;;;;;;;;5074932;28;20032;-73
2024/03/16 03:27:41;;;;;;;4.72;2.15;;;;;;;;;;5074460;28;20034;-73
2024/03/16 03:30:06;;;;;;;6.07;1.95;;;;;;;;;;5070292;28;20050;-74
2024/03/16 03:32:32;;;;;;;7.82;2.33;;;;;;;;;;5070057;28;20032;-74
2024/03/16 03:34:57;;;;;;;4.18;2.05;;;;;;;;;;5070364;28;20024;-74
2024/03/16 03:37:22;;;;;;;7.28;2.80;;;;;;;;;;5077010;28;20081;-74
2024/03/16 03:39:52;;;;;;;5.55;1.70;;;;;;;;;;5070743;28;20105;-74
2024/03/16 03:42:18;;;;;;;5.40;2.38;;;;;;;;;;5069952;28;20161;-73
2024/03/16 03:44:50;;;;;;;5.43;2.47;;;;;;;;;;5069304;28;20434;-74
2024/03/16 03:47:15;;;;;;;4.22;1.83;;;;;;;;;;5073676;28;20088;-74
2024/03/16 03:49:50;;;;;;;5.57;2.42;;;;;;;;;;5073169;28;20025;-74
2024/03/16 03:52:15;;;;;;;4.88;2.13;;;;;;;;;;5069854;28;20024;-74
2024/03/16 03:54:40;;;;;;;4.28;1.90;;;;;;;;;;5069952;28;20677;-74
2024/03/16 03:57:06;;;;;;;5.40;2.00;;;;;;;;;;5072022;28;20028;-74
2024/03/16 03:59:31;;;;;;;3.83;1.75;;;;;;;;;;5074225;28;20033;-74
2024/03/16 04:01:56;;;;;;;6.25;2.00;;;;;;;;;;5069534;28;20670;-74
2024/03/16 04:04:21;;;;;;;3.15;1.42;;;;;;;;;;5073906;28;20035;-74
2024/03/16 04:06:47;;;;;;;3.85;2.00;;;;;;;;;;5071385;28;20045;-74
2024/03/16 04:09:12;;;;;;;5.03;2.25;;;;;;;;;;5074254;28;20024;-74
2024/03/16 04:11:38;;;;;;;4.88;1.90;;;;;;;;;;5069709;28;20037;-74
2024/03/16 04:14:03;;;;;;;3.38;1.67;;;;;;;;;;5069307;28;20032;-74
2024/03/16 04:16:29;;;;;;;3.78;1.77;;;;;;;;;;5070014;28;20412;-74
2024/03/16 04:18:54;;;;;;;4.25;1.75;;;;;;;;;;5075145;28;20466;-74
2024/03/16 04:21:19;;;;;;;3.83;1.67;;;;;;;;;;5069859;28;20103;-74
2024/03/16 04:23:44;;;;;;;4.75;2.00;;;;;;;;;;5069419;28;20728;-74
2024/03/16 04:26:10;;;;;;;4.45;1.92;;;;;;;;;;5067746;28;20541;-74
2024/03/16 04:28:35;;;;;;;9.88;2.50;;;;;;;;;;5077853;28;20570;-74
2024/03/16 04:31:02;;;;;;;7.28;2.00;;;;;;;;;;5069556;28;20508;-74
2024/03/16 04:33:27;;;;;;;4.97;1.92;;;;;;;;;;5069290;28;20444;-73
2024/03/16 04:35:53;;;;;;;3.95;2.15;;;;;;;;;;5069510;28;20032;-74
2024/03/16 04:38:18;;;;;;;4.70;2.08;;;;;;;;;;5076351;28;20508;-73
2024/03/16 04:40:43;;;;;;;5.57;1.60;;;;;;;;;;5069614;28;20119;-74
2024/03/16 04:43:08;;;;;;;5.97;1.98;;;;;;;;;;5069209;28;20020;-74
2024/03/16 04:45:33;;;;;;;4.50;1.52;;;;;;;;;;5069760;28;20036;-73
2024/03/16 04:47:59;;;;;;;5.18;1.50;;;;;;;;;;5073699;28;20029;-74
2024/03/16 04:50:24;;;;;;;4.30;2.08;;;;;;;;;;5069639;28;20064;-73
2024/03/16 04:52:49;;;;;;;5.15;1.75;;;;;;;;;;5069320;28;20060;-74
2024/03/16 04:55:14;;;;;;;5.35;1.85;;;;;;;;;;5081220;28;20077;-74
2024/03/16 04:57:40;;;;;;;3.92;1.67;;;;;;;;;;5089714;28;20089;-74
2024/03/16 05:00:07;;;;;;;5.95;1.58;;;;;;;;;;5073864;28;20024;-74
2024/03/16 05:02:32;;;;;;;3.67;1.90;;;;;;;;;;5075851;28;20028;-73
2024/03/16 05:04:58;;;;;;;5.43;2.30;;;;;;;;;;5077314;28;20085;-74
2024/03/16 05:07:24;;;;;;;4.28;2.05;;;;;;;;;;5074516;28;20035;-74
2024/03/16 05:09:49;;;;;;;5.05;1.98;;;;;;;;;;5083185;28;20040;-74
2024/03/16 05:12:14;;;;;;;5.13;1.90;;;;;;;;;;5079042;28;20043;-74
2024/03/16 05:14:39;;;;;;;6.25;1.90;;;;;;;;;;5078889;28;20028;-74
2024/03/16 05:17:05;;;;;;;3.67;1.45;;;;;;;;;;5078969;28;20038;-74
2024/03/16 05:19:30;;;;;;;3.97;1.85;;;;;;;;;;5077415;28;20034;-74
2024/03/16 05:21:55;;;;;;;5.40;1.90;;;;;;;;;;5072172;28;20137;-74
2024/03/16 05:24:20;;;;;;;4.40;1.63;;;;;;;;;;5072359;28;20028;-74
2024/03/16 05:26:45;;;;;;;4.35;1.63;;;;;;;;;;5072720;28;20492;-75
2024/03/16 05:29:11;;;;;;;4.70;1.50;;;;;;;;;;5076969;28;20032;-74
2024/03/16 05:31:37;;;;;;;4.32;1.52;;;;;;;;;;5079754;28;20036;-73
2024/03/16 05:34:02;;;;;;;4.25;1.38;;;;;;;;;;5074199;28;20028;-75
2024/03/16 05:36:28;;;;;;;5.32;1.70;;;;;;;;;;5074402;28;20052;-74
2024/03/16 05:38:53;;;;;;;4.65;1.55;;;;;;;;;;5078416;28;20041;-74
2024/03/16 05:41:19;;;;;;;3.40;1.65;;;;;;;;;;5072562;28;20050;-75
2024/03/16 05:43:44;;;;;;;3.40;1.33;;;;;;;;;;5072063;28;20036;-74
2024/03/16 05:46:10;;;;;;;4.05;1.30;;;;;;;;;;5072305;28;20025;-74
2024/03/16 05:48:35;;;;;;;4.45;1.58;;;;;;;;;;5076853;28;20404;-74
2024/03/16 05:51:01;;;;;;;4.80;1.90;;;;;;;;;;5072088;28;20104;-74
2024/03/16 05:53:26;;;;;;;3.92;1.95;;;;;;;;;;5071883;28;20060;-75
2024/03/16 05:55:51;;;;;;;5.18;2.00;;;;;;;;;;5072166;28;20068;-74
2024/03/16 05:58:17;;;;;;;5.95;2.03;;;;;;;;;;5081293;28;20071;-74
2024/03/16 06:00:42;;;;;;;3.65;1.60;;;;;;;;;;5075267;28;20465;-75
2024/03/16 06:03:08;;;;;;;3.53;1.55;;;;;;;;;;5070352;28;20028;-74
2024/03/16 06:05:35;;;;;;;4.45;1.50;;;;;;;;;;5071472;28;20020;-74
2024/03/16 06:08:01;;;;;;;4.88;1.63;;;;;;;;;;5078346;28;20028;-75
2024/03/16 06:10:27;;;;;;;3.60;1.60;;;;;;;;;;5071891;28;20445;-75
2024/03/16 06:12:52;;;;;;;5.93;1.83;;;;;;;;;;5071582;28;20071;-78
2024/03/16 06:15:18;;;;;;;4.90;1.77;;;;;;;;;;5072217;28;20659;-78
2024/03/16 06:17:43;;;;;;;5.38;1.92;;;;;;;;;;5076508;28;20024;-75
2024/03/16 06:20:10;;;;;;;3.90;1.52;;;;;;;;;;5072260;28;20400;-76
2024/03/16 06:22:35;;;;;;;4.20;1.95;;;;;;;;;;5075341;28;20031;-74
2024/03/16 06:25:02;;;;;;;7.38;2.42;;;;;;;;;;5071441;28;20021;-74
2024/03/16 06:27:27;;;;;;;3.83;1.40;;;;;;;;;;5074050;28;20393;-74
2024/03/16 06:29:52;;;;;;;4.57;1.50;;;;;;;;;;5072970;28;20028;-74
2024/03/16 06:32:20;;;;;;;2.92;1.45;;;;;;;;;;5071258;28;20034;-75
2024/03/16 06:34:46;;;;;;;3.15;1.63;;;;;;;;;;5070634;28;20033;-74
2024/03/16 06:37:11;;;;;;;3.28;1.58;;;;;;;;;;5081914;28;20039;-74
2024/03/16 06:39:36;;;;;;;8.98;2.33;;;;;;;;;;5080044;28;20033;-76
2024/03/16 06:42:01;;;;;;;5.03;1.80;;;;;;;;;;5078274;28;20046;-75
2024/03/16 06:44:26;;;;;;;5.20;1.55;;;;;;;;;;5076922;28;20404;-75
2024/03/16 06:46:52;;;;;;;3.47;1.67;;;;;;;;;;5077054;28;20396;-76
2024/03/16 06:49:17;;;;;;;5.00;1.73;;;;;;;;;;5072141;28;20496;-76
2024/03/16 06:51:42;;;;;;;3.97;1.63;;;;;;;;;;5077527;28;20032;-75
2024/03/16 06:54:08;;;;;;;4.75;1.63;;;;;;;;;;5079488;28;20446;-76
2024/03/16 06:56:33;;;;;;;4.45;1.23;;;;;;;;;;5076981;28;20507;-76
2024/03/16 06:58:59;;;;;;;5.38;1.50;;;;;;;;;;5079710;28;20118;-76
2024/03/16 07:01:24;;;;;;;4.40;1.35;;;;;;;;;;5077237;28;20039;-75
2024/03/16 07:03:51;;;;;;;3.55;1.60;;;;;;;;;;5070309;28;20591;-75
2024/03/16 07:06:16;;;;;;;4.20;1.70;;;;;;;;;;5070987;28;20385;-76
2024/03/16 07:08:41;;;;;;;6.68;1.60;;;;;;;;;;5076199;28;20028;-75
2024/03/16 07:11:06;;;;;;;3.65;1.80;;;;;;;;;;5070670;28;20086;-76
2024/03/16 07:13:32;;;;;;;4.85;1.38;;;;;;;;;;5070282;28;20034;-74
2024/03/16 07:15:57;;;;;;;3.40;1.48;;;;;;;;;;5070309;28;20038;-75
2024/03/16 07:18:23;;;;;;;3.13;1.48;;;;;;;;;;5074052;28;20028;-76
2024/03/16 07:20:48;;;;;;;5.40;1.85;;;;;;;;;;5070004;28;20135;-76
2024/03/16 07:23:13;;;;;;;4.47;1.40;;;;;;;;;;5070211;28;20013;-76
2024/03/16 07:25:39;;;;;;;4.32;1.38;;;;;;;;;;5070302;28;20029;-76
2024/03/16 07:28:04;;;;;;;3.00;1.10;;;;;;;;;;5080202;28;20032;-76
2024/03/16 07:30:30;;;;;;;5.35;1.38;;;;;;;;;;5084581;28;20036;-76
2024/03/16 07:32:56;;;;;;;3.75;1.42;;;;;;;;;;5088273;28;20492;-76
2024/03/16 07:35:21;;;;;;;2.92;1.25;;;;;;;;;;5087036;28;20115;-76
2024/03/16 07:37:46;;;;;;;5.63;1.40;;;;;;;;;;5085324;28;20036;-76
2024/03/16 07:40:15;;;;;;;4.97;1.60;;;;;;;;;;5083642;28;20550;-75
2024/03/16 07:42:41;;;;;;;4.97;1.27;;;;;;;;;;5078862;28;20039;-74
2024/03/16 07:45:07;;;;;;;2.13;0.90;;;;;;;;;;5077840;28;20025;-75
2024/03/16 07:47:32;;;;;;;3.40;1.13;;;;;;;;;;5080471;28;20035;-76
2024/03/16 07:49:57;;;;;;;3.28;1.27;;;;;;;;;;5076173;28;20122;-75
2024/03/16 07:52:22;;;;;;;3.08;1.50;;;;;;;;;;5079148;28;20039;-75
2024/03/16 07:54:48;;;;;;;3.55;1.10;;;;;;;;;;5077177;28;20036;-76
2024/03/16 07:57:13;;;;;;;3.72;1.40;;;;;;;;;;5084062;28;20047;-75
2024/03/16 07:59:38;;;;;;;3.78;1.42;;;;;;;;;;5083683;28;20089;-76
2024/03/16 08:02:04;;;;;;;4.68;1.85;;;;;;;;;;5079327;28;20033;-75
2024/03/16 08:04:33;;;;;;;5.15;1.35;;;;;;;;;;5070917;28;20024;-76
2024/03/16 08:06:58;;;;;;;3.70;1.73;;;;;;;;;;5070894;28;20089;-76
2024/03/16 08:09:23;;;;;;;2.90;1.42;;;;;;;;;;5073016;28;20021;-75
2024/03/16 08:11:48;;;;;;;3.63;1.65;;;;;;;;;;5071598;28;20511;-75
2024/03/16 08:14:14;;;;;;;4.30;1.40;;;;;;;;;;5069947;28;20037;-76
2024/03/16 08:16:39;;;;;;;5.93;2.03;;;;;;;;;;5069921;28;20036;-75
2024/03/16 08:19:05;;;;;;;3.35;1.80;;;;;;;;;;5072275;28;20043;-75
2024/03/16 08:21:30;;;;;;;5.82;1.88;;;;;;;;;;5069681;28;20454;-75
2024/03/16 08:23:55;;;;;;;4.78;1.73;;;;;;;;;;5074368;28;20035;-75
2024/03/16 08:26:21;;;;;;;4.25;1.50;;;;;;;;;;5071562;28;20090;-75
2024/03/16 08:28:46;;;;;;;7.40;2.08;;;;;;;;;;5076167;28;20162;-75
2024/03/16 08:31:11;;;;;;;4.05;1.35;;;;;;;;;;5077357;28;20024;-75
2024/03/16 08:33:36;;;;;;;5.32;1.50;;;;;;;;;;5073390;28;20040;-75
2024/03/16 08:36:05;;;;;;;3.90;1.50;;;;;;;;;;5073573;28;20109;-75
2024/03/16 08:38:32;;;;;;;3.00;1.27;;;;;;;;;;5076831;28;20074;-75
2024/03/16 08:40:57;;;;;;;2.50;1.15;;;;;;;;;;5088142;28;20403;-75
2024/03/16 08:43:23;;;;;;;2.63;1.35;;;;;;;;;;5089042;28;20034;-75
2024/03/16 08:45:48;;;;;;;2.88;1.08;;;;;;;;;;5089667;28;20028;-75
2024/03/16 08:48:13;;;;;;;5.20;1.70;;;;;;;;;;5084812;28;20028;-75
2024/03/16 08:50:38;;;;;;;2.50;1.08;;;;;;;;;;5078557;28;20489;-75
2024/03/16 08:53:04;;;;;;;2.67;1.20;;;;;;;;;;5076559;28;20113;-74
2024/03/16 08:55:29;;;;;;;3.35;1.15;;;;;;;;;;5073553;28;20046;-75
2024/03/16 08:57:54;;;;;;;3.33;1.63;;;;;;;;;;5080386;28;20037;-75
2024/03/16 09:00:19;;;;;;;4.05;1.27;;;;;;;;;;5082341;28;20039;-75
2024/03/16 09:02:44;;;;;;;3.80;1.20;;;;;;;;;;5083497;28;20020;-76
2024/03/16 09:05:10;;;;;;;2.78;1.08;;;;;;;;;;5077107;28;20024;-76
2024/03/16 09:07:38;;;;;;;4.20;1.27;;;;;;;;;;5087214;28;20042;-76
2024/03/16 09:10:06;;;;;;;4.30;1.30;;;;;;;;;;5085464;28;20484;-74
2024/03/16 09:12:31;;;;;;;3.95;1.30;;;;;;;;;;5080476;28;20032;-74
2024/03/16 09:14:56;;;;;;;3.35;1.80;;;;;;;;;;5078685;28;20028;-75
2024/03/16 09:17:22;;;;;;;6.82;3.75;;;;;;;;;;5080729;28;20488;-76
2024/03/16 09:19:47;;;;;;;3.25;1.30;;;;;;;;;;5087144;28;20125;-75
2024/03/16 09:22:12;;;;;;;4.50;1.30;;;;;;;;;;5085372;28;20028;-75
2024/03/16 09:24:37;;;;;;;3.00;1.00;;;;;;;;;;5089873;28;20028;-75
2024/03/16 09:27:03;;;;;;;3.15;1.08;;;;;;;;;;5083449;28;20031;-76
2024/03/16 09:29:29;;;;;;;3.22;1.10;;;;;;;;;;5084512;28;20428;-75
2024/03/16 09:31:54;;;;;;;3.20;1.13;;;;;;;;;;5072104;28;20107;-75
2024/03/16 09:34:20;;;;;;;4.68;0.90;;;;;;;;;;5073838;28;20492;-76
2024/03/16 09:36:45;;;;;;;4.05;1.25;;;;;;;;;;5081216;28;20039;-76
2024/03/16 09:39:10;;;;;;;3.75;1.40;;;;;;;;;;5077604;28;20442;-75
2024/03/16 09:41:39;;;;;;;3.70;1.30;;;;;;;;;;5083435;28;20024;-76
2024/03/16 09:44:13;;;;;;;3.22;1.25;;;;;;;;;;5079749;28;20040;-76
2024/03/16 09:46:42;;;;;;;2.58;1.10;;;;;;;;;;5084655;28;20024;-76
2024/03/16 09:49:09;;;;;;;2.58;1.13;;;;;;;;;;5083465;28;20032;-76
2024/03/16 09:51:35;;;;;;;3.45;1.08;;;;;;;;;;5085608;28;20039;-76
2024/03/16 09:54:06;;;;;;;3.28;1.08;;;;;;;;;;5085388;28;20078;-75
2024/03/16 09:56:31;;;;;;;3.83;0.90;;;;;;;;;;5079694;28;20044;-76
2024/03/16 09:58:57;;;;;;;2.53;1.00;;;;;;;;;;5074823;28;20029;-76
2024/03/16 10:01:22;;;;;;;3.00;0.85;;;;;;;;;;5072074;28;20431;-76
2024/03/16 10:03:47;;;;;;;2.92;1.20;;;;;;;;;;5071848;28;20028;-76
2024/03/16 10:06:15;;;;;;;5.50;1.38;;;;;;;;;;5071895;28;20023;-76
2024/03/16 10:08:41;;;;;;;2.35;0.98;;;;;;;;;;5076120;28;20032;-76
2024/03/16 10:11:10;;;;;;;3.85;0.90;;;;;;;;;;5071752;28;20029;-73
2024/03/16 10:13:37;;;;;;;4.13;1.10;;;;;;;;;;5071603;28;20064;-74
2024/03/16 10:16:02;;;;;;;2.85;0.80;;;;;;;;;;5071604;28;20036;-73
2024/03/16 10:18:27;;;;;;;3.20;1.13;;;;;;;;;;5075724;28;20036;-74
2024/03/16 10:20:53;;;;;;;2.75;0.90;;;;;;;;;;5077583;28;20060;-74
2024/03/16 10:23:20;;;;;;;4.40;1.33;;;;;;;;;;5086319;28;20028;-74
2024/03/16 10:25:48;;;;;;;4.43;1.10;;;;;;;;;;5086066;28;20039;-74
2024/03/16 10:28:16;;;;;;;3.45;1.58;;;;;;;;;;5083882;28;20039;-74
2024/03/16 10:30:43;;;;;;;3.45;1.10;;;;;;;;;;5081964;28;20039;-74
2024/03/16 10:33:08;;;;;;;2.97;1.02;;;;;;;;;;5088009;28;20473;-74
2024/03/16 10:35:34;;;;;;;3.03;1.13;;;;;;;;;;5090503;28;20093;-74
2024/03/16 10:38:00;;;;;;;2.33;0.93;;;;;;;;;;5085360;28;20024;-74
2024/03/16 10:40:25;;;;;;;5.30;2.30;;;;;;;;;;5080781;28;20032;-74
2024/03/16 10:42:51;;;;;;;5.25;1.80;;;;;;;;;;5083223;28;20024;-74
2024/03/16 10:45:19;;;;;;;4.25;1.63;;;;;;;;;;5084310;28;20044;-73
2024/03/16 10:47:47;;;;;;;3.28;1.77;;;;;;;;;;5081955;28;20032;-74
2024/03/16 10:50:12;;;;;;;5.20;2.00;;;;;;;;;;5075380;28;20032;-74
2024/03/16 10:52:39;;;;;;;4.57;1.70;;;;;;;;;;5078236;28;20527;-74
2024/03/16 10:55:07;;;;;;;3.90;1.30;;;;;;;;;;5076725;28;20043;-73
2024/03/16 10:57:33;;;;;;;4.82;1.60;;;;;;;;;;5086572;28;20063;-74
2024/03/16 10:59:58;;;;;;;3.45;1.20;;;;;;;;;;5081857;28;20064;-73
2024/03/16 11:02:24;;;;;;;2.83;1.10;;;;;;;;;;5077926;28;20028;-73
2024/03/16 11:04:51;;;;;;;4.03;1.38;;;;;;;;;;5075626;28;20031;-73
2024/03/16 11:07:18;;;;;;;3.10;1.20;;;;;;;;;;5082165;28;20174;-73
2024/03/16 11:09:43;;;;;;;3.38;1.27;;;;;;;;;;5082076;28;20032;-74
2024/03/16 11:12:29;;;;;;;3.38;1.13;;;;;;;;;;5083468;28;20109;-74
2024/03/16 11:15:12;;;;;;;6.18;2.15;;;;;;;;;;5088588;28;20088;-74
2024/03/16 11:17:38;;;;;;;3.42;1.40;;;;;;;;;;5074840;28;20132;-74
2024/03/16 11:20:21;;;;;;;4.03;1.30;;;;;;;;;;5077893;28;20107;-73
2024/03/16 11:22:47;;;;;;;1.83;1.08;;;;;;;;;;5070338;28;20056;-74
2024/03/16 11:25:19;;;;;;;3.67;1.02;;;;;;;;;;5070479;28;20642;-74
2024/03/16 11:27:50;;;;;;;2.65;1.20;;;;;;;;;;5070803;28;20126;-74
2024/03/16 11:30:19;;;;;;;2.45;1.20;;;;;;;;;;5074767;28;20401;-74
2024/03/16 11:32:45;;;;;;;4.65;1.20;;;;;;;;;;5071847;28;20052;-74
2024/03/16 11:35:11;;;;;;;1.65;0.90;;;;;;;;;;5076142;28;20035;-74
2024/03/16 11:37:36;;;;;;;2.13;1.02;;;;;;;;;;5071589;28;20060;-74
2024/03/16 11:40:01;;;;;;;3.03;1.00;;;;;;;;;;5080108;28;20051;-74
2024/03/16 11:42:27;;;;;;;5.35;1.55;;;;;;;;;;5087526;28;20476;-74
2024/03/16 11:44:52;;;;;;;2.05;0.93;;;;;;;;;;5089583;28;20055;-74
2024/03/16 11:47:20;;;;;;;2.25;1.02;;;;;;;;;;5088772;28;20039;-73
2024/03/16 11:49:45;;;;;;;2.17;1.02;;;;;;;;;;5084712;28;20043;-74
2024/03/16 11:52:10;;;;;;;3.67;1.50;;;;;;;;;;5083648;28;20103;-74
2024/03/16 11:54:36;;;;;;;2.75;1.05;;;;;;;;;;5081338;28;20537;-74
2024/03/16 11:57:02;;;;;;;2.55;1.02;;;;;;;;;;5083944;28;20024;-74
2024/03/16 11:59:28;;;;;;;2.45;0.90;;;;;;;;;;5085447;28;20078;-74
2024/03/16 12:01:54;;;;;;;2.53;1.10;;;;;;;;;;5081429;28;20033;-75
2024/03/16 12:04:24;;;;;;;2.78;1.15;;;;;;;;;;5080867;28;20032;-74
2024/03/16 12:06:50;;;;;;;3.25;1.20;;;;;;;;;;5081155;28;20028;-75
2024/03/16 12:09:17;;;;;;;3.17;1.38;;;;;;;;;;5082811;28;20039;-74
2024/03/16 12:11:46;;;;;;;2.53;1.20;;;;;;;;;;5086264;28;20103;-74
2024/03/16 12:14:13;;;;;;;2.65;1.00;;;;;;;;;;5082430;28;20401;-74
2024/03/16 12:16:39;;;;;;;4.13;1.92;;;;;;;;;;5081518;28;20150;-74
2024/03/16 12:19:08;;;;;;;3.45;1.55;;;;;;;;;;5079164;28;20111;-74
2024/03/16 12:21:39;;;;;;;2.92;1.23;;;;;;;;;;5076530;28;20192;-73
2024/03/16 12:24:05;;;;;;;4.57;0.93;;;;;;;;;;5069584;28;20069;-73
2024/03/16 12:26:31;;;;;;;1.60;0.73;;;;;;;;;;5069858;28;20103;-73
2024/03/16 12:29:26;;;;;;;3.65;1.10;;;;;;;;;;5075622;28;20032;-74
2024/03/16 12:31:53;;;;;;;2.03;0.77;;;;;;;;;;5067955;28;20093;-74
2024/03/16 12:34:19;;;;;;;3.15;0.95;;;;;;;;;;5074814;28;20032;-74
2024/03/16 12:36:44;;;;;;;2.28;0.80;;;;;;;;;;5069836;28;20040;-73
2024/03/16 12:39:11;;;;;;;2.83;0.80;;;;;;;;;;5076578;28;20032;-74
2024/03/16 12:41:36;;;;;;;2.97;1.08;;;;;;;;;;5078579;28;20404;-73
2024/03/16 12:44:03;;;;;;;2.22;0.93;;;;;;;;;;5071741;28;20024;-74
2024/03/16 12:46:28;;;;;;;3.13;0.93;;;;;;;;;;5068523;28;20032;-74
2024/03/16 12:48:53;;;;;;;4.55;1.10;;;;;;;;;;5077262;28;20031;-74
2024/03/16 12:51:19;;;;;;;2.08;0.93;;;;;;;;;;5071719;28;20110;-73
2024/03/16 12:53:45;;;;;;;2.13;0.85;;;;;;;;;;5069287;28;20040;-73
2024/03/16 12:56:11;;;;;;;3.65;1.20;;;;;;;;;;5079400;28;20078;-73
2024/03/16 12:58:36;;;;;;;1.85;0.90;;;;;;;;;;5079005;28;20119;-74
2024/03/16 13:01:01;;;;;;;8.98;0.80;;;;;;;;;;5069253;28;20047;-73
2024/03/16 13:03:27;;;;;;;6.97;0.50;;;;;;;;;;5069200;28;20023;-73
2024/03/16 13:05:52;;;;;;;6.93;0.73;;;;;;;;;;5069446;28;20120;-73
2024/03/16 13:08:17;;;;;;;1.55;0.43;;;;;;;;;;5076271;28;20038;-73
2024/03/16 13:10:42;;;;;;;3.55;0.30;;;;;;;;;;5072519;28;20036;-72
2024/03/16 13:13:07;;;;;;;1.80;0.57;;;;;;;;;;5069002;28;20032;-73
2024/03/16 13:15:32;;;;;;;5.28;0.40;;;;;;;;;;5069281;28;20035;-74
2024/03/16 13:17:58;;;;;;;1.05;0.45;;;;;;;;;;5073005;28;20489;-73
2024/03/16 13:20:24;;;;;;;1.00;0.50;;;;;;;;;;5079214;28;20570;-72
2024/03/16 13:22:49;;;;;;;2.63;0.90;;;;;;;;;;5072482;28;20503;-72
2024/03/16 13:25:14;;;;;;;3.08;1.30;;;;;;;;;;5072563;28;20104;-72
2024/03/16 13:27:40;;;;;;;3.13;1.10;;;;;;;;;;5072715;28;20032;-72
2024/03/16 13:30:06;;;;;;;4.00;1.33;;;;;;;;;;5086019;28;20020;-72
2024/03/16 13:32:33;;;;;;;4.00;1.60;;;;;;;;;;5072374;28;20409;-72
2024/03/16 13:34:58;;;;;;;4.30;1.40;;;;;;;;;;5072341;28;20496;-72
2024/03/16 13:37:24;;;;;;;2.92;1.35;;;;;;;;;;5075674;28;20063;-72
2024/03/16 13:39:50;;;;;;;3.70;1.48;;;;;;;;;;5077205;28;20028;-72
2024/03/16 13:42:15;;;;;;;3.42;1.70;;;;;;;;;;5072116;28;20028;-72
2024/03/16 13:44:42;;;;;;;5.43;2.10;;;;;;;;;;5072456;28;20035;-72
2024/03/16 13:47:08;;;;;;;3.20;1.70;;;;;;;;;;5071434;28;20644;-72
2024/03/16 13:49:35;;;;;;;5.38;2.65;;;;;;;;;;5078523;28;20075;-71
2024/03/16 13:52:00;;;;;;;4.70;2.17;;;;;;;;;;5071818;28;20123;-72
2024/03/16 13:54:25;;;;;;;4.35;2.00;;;;;;;;;;5072155;28;20540;-72
2024/03/16 13:56:51;;;;;;;6.35;1.98;;;;;;;;;;5072264;28;20047;-72
2024/03/16 13:59:16;;;;;;;4.85;2.17;;;;;;;;;;5078993;28;20032;-72
2024/03/16 14:01:41;;;;;;;3.13;1.60;;;;;;;;;;5072083;28;20036;-72
2024/03/16 14:04:08;;;;;;;3.70;1.77;;;;;;;;;;5071432;28;20039;-72
2024/03/16 14:06:33;;;;;;;4.18;1.00;;;;;;;;;;5076161;28;20039;-71
2024/03/16 14:08:59;;;;;;;2.63;1.35;;;;;;;;;;5078466;28;20020;-72
2024/03/16 14:11:24;;;;;;;2.60;1.05;;;;;;;;;;5070656;28;20044;-73
2024/03/16 14:13:49;;;;;;;2.58;0.98;;;;;;;;;;5071604;28;20040;-73
2024/03/16 14:16:16;;;;;;;3.30;1.48;;;;;;;;;;5071943;28;20035;-73
2024/03/16 14:18:41;;;;;;;1.98;0.82;;;;;;;;;;5076885;28;20024;-75
2024/03/16 14:21:08;;;;;;;4.07;1.38;;;;;;;;;;5070145;28;20037;-74
2024/03/16 14:23:36;;;;;;;2.78;1.30;;;;;;;;;;5071374;28;20041;-74
2024/03/16 14:26:02;;;;;;;3.00;1.23;;;;;;;;;;5071368;28;20136;-74
2024/03/16 14:28:31;;;;;;;3.85;1.40;;;;;;;;;;5074487;28;20110;-74
2024/03/16 14:30:57;;;;;;;2.72;1.50;;;;;;;;;;5073293;28;20060;-75
2024/03/16 14:33:22;;;;;;;3.67;1.42;;;;;;;;;;5071548;28;20056;-74
2024/03/16 14:35:47;;;;;;;3.45;1.58;;;;;;;;;;5071381;28;20568;-75